Schefferville, Canada
Current Conditions -  °F | °C
As of 3:00 PM on Sunday 23 Nov 2014 (Local Time) from CYKL Reporting Station
Light Snow Light Snow  
Wind Chill: -21°   Ceiling: 3900
Heat Index: -12°   Visibility: 7mi
Dew Point: -14°   Wind: 16mph
Humidity: 85%   Direction: 260°W
Pressure: 29.65"   Gusts: 26mph
Location:  54.8°N, 66.83°W
Report Text: CYKL 232000Z AUTO 26014G23KT 7SM -SN BKN039 M12/M14 A2965 RMK SLP087
Loading
Personal Weather Stations






























Interactive Weather Map New forecast layout! Learn more

10-Day Weather Forecast

Advertisements
Track Severe Weather on mobile